sensor_id;sensor_type;location;lat;lon;timestamp;pressure;altitude;pressure_sealevel;temperature;humidity
804;BME280;25687;49.976;8.240;2022-11-25T00:01:08;99989.56;;;2.55;100.00
804;BME280;25687;49.976;8.240;2022-11-25T00:03:36;99996.13;;;2.64;100.00
804;BME280;25687;49.976;8.240;2022-11-25T00:08:36;99995.53;;;2.88;100.00
804;BME280;25687;49.976;8.240;2022-11-25T00:11:03;99986.97;;;2.93;100.00
804;BME280;25687;49.976;8.240;2022-11-25T00:13:29;99990.00;;;3.07;100.00
804;BME280;25687;49.976;8.240;2022-11-25T00:15:55;99975.88;;;2.97;100.00
804;BME280;25687;49.976;8.240;2022-11-25T00:18:20;99974.44;;;2.85;100.00
804;BME280;25687;49.976;8.240;2022-11-25T00:20:46;99987.72;;;2.98;100.00
804;BME280;25687;49.976;8.240;2022-11-25T00:23:11;99976.44;;;2.73;100.00
804;BME280;25687;49.976;8.240;2022-11-25T00:25:37;99985.72;;;2.74;100.00
804;BME280;25687;49.976;8.240;2022-11-25T00:28:02;99974.56;;;2.80;100.00
804;BME280;25687;49.976;8.240;2022-11-25T00:30:27;99978.56;;;2.90;100.00
804;BME280;25687;49.976;8.240;2022-11-25T00:32:53;99971.50;;;3.02;100.00
804;BME280;25687;49.976;8.240;2022-11-25T00:35:18;99976.59;;;3.02;100.00
804;BME280;25687;49.976;8.240;2022-11-25T00:37:44;99978.09;;;2.74;100.00
804;BME280;25687;49.976;8.240;2022-11-25T00:40:10;99974.44;;;2.85;100.00
804;BME280;25687;49.976;8.240;2022-11-25T00:42:35;99972.53;;;2.95;100.00
804;BME280;25687;49.976;8.240;2022-11-25T00:45:19;99977.69;;;2.92;100.00
804;BME280;25687;49.976;8.240;2022-11-25T00:47:45;99966.47;;;3.00;100.00
804;BME280;25687;49.976;8.240;2022-11-25T00:50:10;99973.88;;;3.08;100.00
804;BME280;25687;49.976;8.240;2022-11-25T00:52:36;99962.81;;;3.11;100.00
804;BME280;25687;49.976;8.240;2022-11-25T00:55:02;99965.56;;;3.01;100.00
804;BME280;25687;49.976;8.240;2022-11-25T00:57:28;99971.03;;;3.20;100.00
804;BME280;25687;49.976;8.240;2022-11-25T00:59:53;99972.31;;;3.02;100.00
804;BME280;25687;49.976;8.240;2022-11-25T01:02:19;99971.53;;;3.00;100.00
804;BME280;25687;49.976;8.240;2022-11-25T01:04:45;99960.16;;;3.15;100.00
804;BME280;25687;49.976;8.240;2022-11-25T01:07:11;99973.31;;;3.30;100.00
804;BME280;25687;49.976;8.240;2022-11-25T01:09:37;99974.16;;;3.30;100.00
804;BME280;25687;49.976;8.240;2022-11-25T01:12:03;99966.53;;;3.30;100.00
804;BME280;25687;49.976;8.240;2022-11-25T01:14:28;99960.47;;;3.01;100.00
804;BME280;25687;49.976;8.240;2022-11-25T01:16:53;99959.00;;;2.94;100.00
804;BME280;25687;49.976;8.240;2022-11-25T01:19:19;99965.34;;;3.11;100.00
804;BME280;25687;49.976;8.240;2022-11-25T01:21:45;99974.94;;;3.32;100.00
804;BME280;25687;49.976;8.240;2022-11-25T01:24:12;99991.75;;;3.38;100.00
804;BME280;25687;49.976;8.240;2022-11-25T01:26:39;99990.06;;;3.37;100.00
804;BME280;25687;49.976;8.240;2022-11-25T01:29:12;99987.81;;;3.26;100.00
804;BME280;25687;49.976;8.240;2022-11-25T01:31:38;99982.66;;;3.29;100.00
804;BME280;25687;49.976;8.240;2022-11-25T01:34:14;99975.66;;;3.37;100.00
804;BME280;25687;49.976;8.240;2022-11-25T01:36:40;99979.75;;;3.43;100.00
804;BME280;25687;49.976;8.240;2022-11-25T01:39:06;99978.28;;;3.34;100.00
804;BME280;25687;49.976;8.240;2022-11-25T01:41:35;99981.94;;;3.24;100.00
804;BME280;25687;49.976;8.240;2022-11-25T01:54:43;99970.22;;;2.85;100.00
804;BME280;25687;49.976;8.240;2022-11-25T01:57:13;99978.28;;;3.01;100.00
804;BME280;25687;49.976;8.240;2022-11-25T01:59:45;99964.84;;;2.98;100.00
804;BME280;25687;49.976;8.240;2022-11-25T02:02:14;99963.69;;;2.75;100.00
804;BME280;25687;49.976;8.240;2022-11-25T02:04:40;99954.56;;;2.66;100.00
804;BME280;25687;49.976;8.240;2022-11-25T02:09:44;99956.44;;;2.22;100.00
804;BME280;25687;49.976;8.240;2022-11-25T02:12:10;99958.69;;;2.34;100.00
804;BME280;25687;49.976;8.240;2022-11-25T02:14:36;99963.31;;;2.56;100.00
804;BME280;25687;49.976;8.240;2022-11-25T02:17:02;99960.41;;;2.34;100.00
804;BME280;25687;49.976;8.240;2022-11-25T02:19:41;99967.69;;;2.12;100.00
804;BME280;25687;49.976;8.240;2022-11-25T02:22:21;99972.06;;;2.03;100.00
804;BME280;25687;49.976;8.240;2022-11-25T02:24:51;99971.97;;;2.08;100.00
804;BME280;25687;49.976;8.240;2022-11-25T02:27:18;99970.72;;;2.28;100.00
804;BME280;25687;49.976;8.240;2022-11-25T02:29:43;99966.84;;;2.49;100.00
804;BME280;25687;49.976;8.240;2022-11-25T02:32:09;99965.56;;;2.31;100.00
804;BME280;25687;49.976;8.240;2022-11-25T02:34:34;99964.78;;;2.29;100.00
804;BME280;25687;49.976;8.240;2022-11-25T02:36:59;99959.84;;;2.22;100.00
804;BME280;25687;49.976;8.240;2022-11-25T02:39:26;99959.66;;;2.30;100.00
804;BME280;25687;49.976;8.240;2022-11-25T02:41:55;99959.03;;;2.56;100.00
804;BME280;25687;49.976;8.240;2022-11-25T02:44:22;99965.59;;;2.67;100.00
804;BME280;25687;49.976;8.240;2022-11-25T02:46:49;99965.28;;;2.79;100.00
804;BME280;25687;49.976;8.240;2022-11-25T02:49:14;99964.22;;;2.88;100.00
804;BME280;25687;49.976;8.240;2022-11-25T02:51:42;99972.63;;;2.90;100.00
804;BME280;25687;49.976;8.240;2022-11-25T02:54:09;99967.84;;;2.79;100.00
804;BME280;25687;49.976;8.240;2022-11-25T02:56:35;99963.31;;;2.90;100.00
804;BME280;25687;49.976;8.240;2022-11-25T02:59:03;99957.47;;;2.87;100.00
804;BME280;25687;49.976;8.240;2022-11-25T03:01:29;99953.41;;;2.80;100.00
804;BME280;25687;49.976;8.240;2022-11-25T03:03:55;99950.63;;;2.90;100.00
804;BME280;25687;49.976;8.240;2022-11-25T03:06:21;99949.59;;;2.96;100.00
804;BME280;25687;49.976;8.240;2022-11-25T03:08:46;99954.28;;;2.79;100.00
804;BME280;25687;49.976;8.240;2022-11-25T03:11:12;99951.63;;;2.83;100.00
804;BME280;25687;49.976;8.240;2022-11-25T03:13:37;99950.53;;;2.94;100.00
804;BME280;25687;49.976;8.240;2022-11-25T03:16:03;99951.16;;;3.02;100.00
804;BME280;25687;49.976;8.240;2022-11-25T03:18:28;99956.69;;;3.18;100.00
804;BME280;25687;49.976;8.240;2022-11-25T03:20:54;99954.84;;;3.23;100.00
804;BME280;25687;49.976;8.240;2022-11-25T03:23:21;99956.38;;;3.30;100.00
804;BME280;25687;49.976;8.240;2022-11-25T03:25:46;99953.81;;;3.30;100.00
804;BME280;25687;49.976;8.240;2022-11-25T03:28:12;99952.78;;;3.37;100.00
804;BME280;25687;49.976;8.240;2022-11-25T03:30:37;99946.81;;;3.38;100.00
804;BME280;25687;49.976;8.240;2022-11-25T03:33:03;99943.16;;;3.47;100.00
804;BME280;25687;49.976;8.240;2022-11-25T03:35:28;99946.47;;;3.51;100.00
804;BME280;25687;49.976;8.240;2022-11-25T03:37:54;99951.25;;;3.62;100.00
804;BME280;25687;49.976;8.240;2022-11-25T03:40:19;99943.91;;;3.52;100.00
804;BME280;25687;49.976;8.240;2022-11-25T03:42:44;99947.63;;;3.70;100.00
804;BME280;25687;49.976;8.240;2022-11-25T03:45:12;99940.72;;;3.74;100.00
804;BME280;25687;49.976;8.240;2022-11-25T03:47:39;99952.59;;;3.75;100.00
804;BME280;25687;49.976;8.240;2022-11-25T03:50:06;99951.00;;;3.71;100.00
804;BME280;25687;49.976;8.240;2022-11-25T03:52:31;99957.66;;;3.75;100.00
804;BME280;25687;49.976;8.240;2022-11-25T03:54:56;99959.69;;;3.64;100.00
804;BME280;25687;49.976;8.240;2022-11-25T03:57:22;99961.88;;;3.76;100.00
804;BME280;25687;49.976;8.240;2022-11-25T03:59:47;99969.47;;;3.78;100.00
804;BME280;25687;49.976;8.240;2022-11-25T04:02:12;99961.31;;;3.66;100.00
804;BME280;25687;49.976;8.240;2022-11-25T04:04:38;99958.78;;;3.66;100.00
804;BME280;25687;49.976;8.240;2022-11-25T04:07:04;99958.59;;;3.72;100.00
804;BME280;25687;49.976;8.240;2022-11-25T04:09:29;99963.63;;;3.74;100.00
804;BME280;25687;49.976;8.240;2022-11-25T04:11:54;99966.84;;;3.81;100.00
804;BME280;25687;49.976;8.240;2022-11-25T04:14:38;99975.97;;;3.88;100.00
804;BME280;25687;49.976;8.240;2022-11-25T04:17:03;99968.78;;;3.72;100.00
804;BME280;25687;49.976;8.240;2022-11-25T04:19:28;99960.84;;;3.83;100.00
804;BME280;25687;49.976;8.240;2022-11-25T04:21:54;99969.94;;;3.91;100.00
804;BME280;25687;49.976;8.240;2022-11-25T04:24:19;99964.78;;;3.94;100.00
804;BME280;25687;49.976;8.240;2022-11-25T04:26:45;99964.59;;;4.00;100.00
804;BME280;25687;49.976;8.240;2022-11-25T04:29:10;99962.31;;;3.91;100.00
804;BME280;25687;49.976;8.240;2022-11-25T04:31:36;99949.03;;;3.81;100.00
804;BME280;25687;49.976;8.240;2022-11-25T04:34:02;99951.25;;;3.92;100.00
804;BME280;25687;49.976;8.240;2022-11-25T04:36:27;99949.81;;;3.83;100.00
804;BME280;25687;49.976;8.240;2022-11-25T04:38:53;99949.91;;;3.80;100.00
804;BME280;25687;49.976;8.240;2022-11-25T04:41:18;99956.34;;;3.92;100.00
804;BME280;25687;49.976;8.240;2022-11-25T04:43:43;99947.38;;;3.78;100.00
804;BME280;25687;49.976;8.240;2022-11-25T04:46:14;99938.69;;;3.87;100.00
804;BME280;25687;49.976;8.240;2022-11-25T04:48:41;99943.66;;;3.90;100.00
804;BME280;25687;49.976;8.240;2022-11-25T04:51:07;99945.06;;;4.00;100.00
804;BME280;25687;49.976;8.240;2022-11-25T04:53:32;99943.72;;;4.17;100.00
804;BME280;25687;49.976;8.240;2022-11-25T04:55:57;99948.81;;;4.17;100.00
804;BME280;25687;49.976;8.240;2022-11-25T04:58:23;99957.91;;;4.24;100.00
804;BME280;25687;49.976;8.240;2022-11-25T05:01:07;99963.53;;;4.35;100.00
804;BME280;25687;49.976;8.240;2022-11-25T05:03:32;99952.31;;;4.41;100.00
804;BME280;25687;49.976;8.240;2022-11-25T05:05:57;99943.38;;;4.28;100.00
804;BME280;25687;49.976;8.240;2022-11-25T05:08:23;99933.56;;;4.15;100.00
804;BME280;25687;49.976;8.240;2022-11-25T05:10:48;99937.22;;;4.07;100.00
804;BME280;25687;49.976;8.240;2022-11-25T05:13:13;99940.00;;;4.27;100.00
804;BME280;25687;49.976;8.240;2022-11-25T05:15:39;99945.66;;;4.37;100.00
804;BME280;25687;49.976;8.240;2022-11-25T05:18:04;99949.63;;;4.46;100.00
804;BME280;25687;49.976;8.240;2022-11-25T05:20:29;99947.63;;;4.56;100.00
804;BME280;25687;49.976;8.240;2022-11-25T05:22:54;99947.13;;;4.44;100.00
804;BME280;25687;49.976;8.240;2022-11-25T05:25:20;99937.63;;;4.49;100.00
804;BME280;25687;49.976;8.240;2022-11-25T05:27:45;99936.00;;;4.20;100.00
804;BME280;25687;49.976;8.240;2022-11-25T05:30:11;99945.78;;;4.32;100.00
804;BME280;25687;49.976;8.240;2022-11-25T05:32:36;99937.34;;;4.32;100.00
804;BME280;25687;49.976;8.240;2022-11-25T05:35:02;99942.13;;;4.41;100.00
804;BME280;25687;49.976;8.240;2022-11-25T05:37:27;99949.00;;;4.39;100.00
804;BME280;25687;49.976;8.240;2022-11-25T05:39:53;99949.88;;;4.38;100.00
804;BME280;25687;49.976;8.240;2022-11-25T05:42:18;99950.41;;;4.48;100.00
804;BME280;25687;49.976;8.240;2022-11-25T05:44:43;99952.91;;;4.49;100.00
804;BME280;25687;49.976;8.240;2022-11-25T05:47:08;99956.97;;;4.28;100.00
804;BME280;25687;49.976;8.240;2022-11-25T05:49:34;99952.63;;;4.32;100.00
804;BME280;25687;49.976;8.240;2022-11-25T05:51:59;99963.38;;;4.12;100.00
804;BME280;25687;49.976;8.240;2022-11-25T05:54:25;99970.31;;;4.08;100.00
804;BME280;25687;49.976;8.240;2022-11-25T05:56:50;99975.78;;;4.23;100.00
804;BME280;25687;49.976;8.240;2022-11-25T05:59:16;99978.25;;;4.26;100.00
804;BME280;25687;49.976;8.240;2022-11-25T06:01:41;99982.75;;;4.46;100.00
804;BME280;25687;49.976;8.240;2022-11-25T06:04:06;99980.28;;;4.43;100.00
804;BME280;25687;49.976;8.240;2022-11-25T06:06:32;99973.81;;;4.32;100.00
804;BME280;25687;49.976;8.240;2022-11-25T06:08:58;99970.50;;;4.29;100.00
804;BME280;25687;49.976;8.240;2022-11-25T06:11:23;99983.53;;;4.19;100.00
804;BME280;25687;49.976;8.240;2022-11-25T06:13:49;99975.47;;;4.05;100.00
804;BME280;25687;49.976;8.240;2022-11-25T06:16:17;99974.19;;;4.20;100.00
804;BME280;25687;49.976;8.240;2022-11-25T06:18:44;99980.00;;;4.24;100.00
804;BME280;25687;49.976;8.240;2022-11-25T06:21:12;99979.94;;;4.27;100.00
804;BME280;25687;49.976;8.240;2022-11-25T06:23:38;99985.03;;;4.27;100.00
804;BME280;25687;49.976;8.240;2022-11-25T06:26:11;99985.94;;;4.24;100.00
804;BME280;25687;49.976;8.240;2022-11-25T06:28:37;100002.69;;;4.31;100.00
804;BME280;25687;49.976;8.240;2022-11-25T06:31:12;100004.97;;;4.41;100.00
804;BME280;25687;49.976;8.240;2022-11-25T06:33:37;99998.28;;;4.36;100.00
804;BME280;25687;49.976;8.240;2022-11-25T06:36:04;100002.19;;;4.48;100.00
804;BME280;25687;49.976;8.240;2022-11-25T06:38:30;100011.63;;;4.45;100.00
804;BME280;25687;49.976;8.240;2022-11-25T06:41:02;100017.09;;;4.32;100.00
804;BME280;25687;49.976;8.240;2022-11-25T06:43:28;100025.59;;;4.33;100.00
804;BME280;25687;49.976;8.240;2022-11-25T06:45:54;100018.59;;;4.40;100.00
804;BME280;25687;49.976;8.240;2022-11-25T06:48:26;100025.75;;;4.55;100.00
804;BME280;25687;49.976;8.240;2022-11-25T06:50:55;100011.88;;;4.64;100.00
804;BME280;25687;49.976;8.240;2022-11-25T06:53:21;100022.72;;;4.71;100.00
804;BME280;25687;49.976;8.240;2022-11-25T06:55:47;100020.81;;;4.50;100.00
804;BME280;25687;49.976;8.240;2022-11-25T06:58:12;100014.72;;;4.55;100.00
804;BME280;25687;49.976;8.240;2022-11-25T07:00:37;100016.91;;;4.39;100.00
804;BME280;25687;49.976;8.240;2022-11-25T07:03:02;100027.53;;;4.25;100.00
804;BME280;25687;49.976;8.240;2022-11-25T07:05:28;100026.66;;;4.52;100.00
804;BME280;25687;49.976;8.240;2022-11-25T07:07:53;100034.53;;;4.16;100.00
804;BME280;25687;49.976;8.240;2022-11-25T07:10:18;100031.28;;;4.11;100.00
804;BME280;25687;49.976;8.240;2022-11-25T07:12:44;100034.69;;;4.40;100.00
804;BME280;25687;49.976;8.240;2022-11-25T07:15:09;100038.59;;;4.52;100.00
804;BME280;25687;49.976;8.240;2022-11-25T07:17:34;100041.69;;;4.62;100.00
804;BME280;25687;49.976;8.240;2022-11-25T07:20:00;100048.34;;;4.66;100.00
804;BME280;25687;49.976;8.240;2022-11-25T07:22:25;100049.22;;;4.65;100.00
804;BME280;25687;49.976;8.240;2022-11-25T07:24:50;100049.84;;;4.73;100.00
804;BME280;25687;49.976;8.240;2022-11-25T07:27:15;100043.63;;;4.82;100.00
804;BME280;25687;49.976;8.240;2022-11-25T07:29:41;100044.78;;;4.72;100.00
804;BME280;25687;49.976;8.240;2022-11-25T07:32:06;100046.41;;;4.46;100.00
804;BME280;25687;49.976;8.240;2022-11-25T07:34:31;100042.38;;;4.67;100.00
804;BME280;25687;49.976;8.240;2022-11-25T07:36:57;100042.19;;;4.73;100.00
804;BME280;25687;49.976;8.240;2022-11-25T07:39:22;100047.16;;;4.78;100.00
804;BME280;25687;49.976;8.240;2022-11-25T07:41:49;100049.53;;;4.82;100.00
804;BME280;25687;49.976;8.240;2022-11-25T07:44:16;100055.44;;;4.84;100.00
804;BME280;25687;49.976;8.240;2022-11-25T07:46:44;100044.53;;;4.79;100.00
804;BME280;25687;49.976;8.240;2022-11-25T07:49:13;100053.81;;;4.82;100.00
804;BME280;25687;49.976;8.240;2022-11-25T07:51:42;100058.31;;;5.00;100.00
804;BME280;25687;49.976;8.240;2022-11-25T07:54:10;100056.19;;;5.13;100.00
804;BME280;25687;49.976;8.240;2022-11-25T07:56:37;100062.97;;;5.14;100.00
804;BME280;25687;49.976;8.240;2022-11-25T07:59:04;100060.53;;;5.11;100.00
804;BME280;25687;49.976;8.240;2022-11-25T08:01:30;100061.69;;;5.01;100.00
804;BME280;25687;49.976;8.240;2022-11-25T08:03:56;100066.84;;;4.99;100.00
804;BME280;25687;49.976;8.240;2022-11-25T08:06:24;100068.50;;;5.27;100.00
804;BME280;25687;49.976;8.240;2022-11-25T08:08:50;100063.44;;;5.26;100.00
804;BME280;25687;49.976;8.240;2022-11-25T08:11:27;100068.81;;;5.18;100.00
804;BME280;25687;49.976;8.240;2022-11-25T08:13:54;100071.88;;;5.03;100.00
804;BME280;25687;49.976;8.240;2022-11-25T08:16:21;100070.38;;;5.22;100.00
804;BME280;25687;49.976;8.240;2022-11-25T08:18:46;100075.44;;;5.24;100.00
804;BME280;25687;49.976;8.240;2022-11-25T08:21:13;100074.56;;;5.25;100.00
804;BME280;25687;49.976;8.240;2022-11-25T08:23:41;100076.38;;;5.21;100.00
804;BME280;25687;49.976;8.240;2022-11-25T08:26:21;100072.88;;;5.49;100.00
804;BME280;25687;49.976;8.240;2022-11-25T08:28:46;100076.09;;;5.54;100.00
804;BME280;25687;49.976;8.240;2022-11-25T08:31:15;100077.00;;;5.78;100.00
804;BME280;25687;49.976;8.240;2022-11-25T08:33:41;100077.16;;;5.97;100.00
804;BME280;25687;49.976;8.240;2022-11-25T08:36:08;100068.41;;;5.81;100.00
804;BME280;25687;49.976;8.240;2022-11-25T08:38:34;100073.25;;;5.63;100.00
804;BME280;25687;49.976;8.240;2022-11-25T08:40:59;100080.38;;;5.79;100.00
804;BME280;25687;49.976;8.240;2022-11-25T08:43:25;100087.78;;;5.87;100.00
804;BME280;25687;49.976;8.240;2022-11-25T08:45:51;100091.09;;;5.89;100.00
804;BME280;25687;49.976;8.240;2022-11-25T08:48:18;100073.09;;;5.68;100.00
804;BME280;25687;49.976;8.240;2022-11-25T08:50:53;100075.44;;;5.49;100.00
804;BME280;25687;49.976;8.240;2022-11-25T08:53:20;100089.03;;;5.75;100.00
804;BME280;25687;49.976;8.240;2022-11-25T08:55:46;100097.66;;;5.96;100.00
804;BME280;25687;49.976;8.240;2022-11-25T08:58:12;100106.31;;;6.17;100.00
804;BME280;25687;49.976;8.240;2022-11-25T09:00:41;100105.03;;;6.29;100.00
804;BME280;25687;49.976;8.240;2022-11-25T09:03:08;100101.06;;;6.44;100.00
804;BME280;25687;49.976;8.240;2022-11-25T09:05:34;100109.09;;;6.57;100.00
804;BME280;25687;49.976;8.240;2022-11-25T09:08:04;100110.44;;;6.43;100.00
804;BME280;25687;49.976;8.240;2022-11-25T09:10:31;100122.59;;;6.60;100.00
804;BME280;25687;49.976;8.240;2022-11-25T09:12:57;100119.22;;;6.60;100.00
804;BME280;25687;49.976;8.240;2022-11-25T09:15:22;100116.66;;;6.60;100.00
804;BME280;25687;49.976;8.240;2022-11-25T09:17:47;100120.56;;;6.46;100.00
804;BME280;25687;49.976;8.240;2022-11-25T09:20:13;100114.13;;;6.60;100.00
804;BME280;25687;49.976;8.240;2022-11-25T09:22:38;100127.66;;;6.84;100.00
804;BME280;25687;49.976;8.240;2022-11-25T09:25:04;100121.97;;;6.77;100.00
804;BME280;25687;49.976;8.240;2022-11-25T09:27:30;100119.56;;;6.73;100.00
804;BME280;25687;49.976;8.240;2022-11-25T09:29:55;100127.19;;;6.74;100.00
804;BME280;25687;49.976;8.240;2022-11-25T09:32:20;100126.16;;;7.01;100.00
804;BME280;25687;49.976;8.240;2022-11-25T09:34:46;100128.31;;;7.11;100.00
804;BME280;25687;49.976;8.240;2022-11-25T09:37:11;100128.84;;;7.20;100.00
804;BME280;25687;49.976;8.240;2022-11-25T09:39:36;100129.81;;;7.17;100.00
804;BME280;25687;49.976;8.240;2022-11-25T09:45:24;100139.31;;;6.69;100.00
804;BME280;25687;49.976;8.240;2022-11-25T09:51:16;100147.34;;;7.26;100.00
804;BME280;25687;49.976;8.240;2022-11-25T09:53:46;100152.66;;;7.22;100.00
804;BME280;25687;49.976;8.240;2022-11-25T09:56:40;100152.22;;;7.10;100.00
804;BME280;25687;49.976;8.240;2022-11-25T09:59:12;100149.25;;;6.99;100.00
804;BME280;25687;49.976;8.240;2022-11-25T10:02:01;100154.91;;;7.07;100.00
804;BME280;25687;49.976;8.240;2022-11-25T10:04:35;100159.72;;;7.15;100.00
804;BME280;25687;49.976;8.240;2022-11-25T10:07:02;100156.56;;;7.31;100.00
804;BME280;25687;49.976;8.240;2022-11-25T10:09:32;100155.66;;;7.32;100.00
804;BME280;25687;49.976;8.240;2022-11-25T10:12:12;100147.56;;;7.42;100.00
804;BME280;25687;49.976;8.240;2022-11-25T10:14:47;100154.47;;;7.61;100.00
804;BME280;25687;49.976;8.240;2022-11-25T10:17:32;100154.66;;;7.77;100.00
804;BME280;25687;49.976;8.240;2022-11-25T10:22:38;100155.22;;;7.84;100.00
804;BME280;25687;49.976;8.240;2022-11-25T10:27:42;100161.25;;;8.03;100.00
804;BME280;25687;49.976;8.240;2022-11-25T10:32:43;100165.63;;;7.81;100.00
804;BME280;25687;49.976;8.240;2022-11-25T10:35:19;100174.16;;;7.38;100.00
804;BME280;25687;49.976;8.240;2022-11-25T10:37:46;100165.78;;;7.35;100.00
804;BME280;25687;49.976;8.240;2022-11-25T10:40:19;100158.31;;;7.51;100.00
804;BME280;25687;49.976;8.240;2022-11-25T10:42:45;100154.81;;;7.74;100.00
804;BME280;25687;49.976;8.240;2022-11-25T10:45:10;100161.13;;;7.86;100.00
804;BME280;25687;49.976;8.240;2022-11-25T10:50:43;100160.94;;;7.49;100.00
804;BME280;25687;49.976;8.240;2022-11-25T10:53:19;100171.50;;;8.03;100.00
804;BME280;25687;49.976;8.240;2022-11-25T10:56:16;100168.75;;;8.27;100.00
804;BME280;25687;49.976;8.240;2022-11-25T10:58:42;100168.91;;;8.64;100.00
804;BME280;25687;49.976;8.240;2022-11-25T11:01:20;100182.66;;;8.80;100.00
804;BME280;25687;49.976;8.240;2022-11-25T11:04:01;100179.81;;;8.86;100.00
804;BME280;25687;49.976;8.240;2022-11-25T11:06:40;100176.97;;;8.93;100.00
804;BME280;25687;49.976;8.240;2022-11-25T11:09:34;100186.81;;;9.02;100.00
804;BME280;25687;49.976;8.240;2022-11-25T11:12:25;100193.22;;;8.93;100.00
804;BME280;25687;49.976;8.240;2022-11-25T11:15:23;100196.47;;;8.78;100.00
804;BME280;25687;49.976;8.240;2022-11-25T11:17:51;100202.69;;;9.10;100.00
804;BME280;25687;49.976;8.240;2022-11-25T11:20:22;100205.50;;;8.67;100.00
804;BME280;25687;49.976;8.240;2022-11-25T11:22:55;100206.22;;;8.69;100.00
804;BME280;25687;49.976;8.240;2022-11-25T11:27:47;100188.28;;;8.69;100.00
804;BME280;25687;49.976;8.240;2022-11-25T11:30:21;100178.78;;;8.13;100.00
804;BME280;25687;49.976;8.240;2022-11-25T11:35:38;100201.53;;;8.60;100.00
804;BME280;25687;49.976;8.240;2022-11-25T11:40:51;100215.56;;;8.72;100.00
804;BME280;25687;49.976;8.240;2022-11-25T11:43:28;100215.00;;;8.84;100.00
804;BME280;25687;49.976;8.240;2022-11-25T11:46:15;100212.66;;;9.16;100.00
804;BME280;25687;49.976;8.240;2022-11-25T11:51:39;100216.03;;;9.36;100.00
804;BME280;25687;49.976;8.240;2022-11-25T11:54:16;100232.06;;;9.59;100.00
804;BME280;25687;49.976;8.240;2022-11-25T11:56:52;100228.88;;;9.53;100.00
804;BME280;25687;49.976;8.240;2022-11-25T12:02:16;100221.16;;;9.36;100.00
804;BME280;25687;49.976;8.240;2022-11-25T12:04:45;100218.59;;;9.53;100.00
804;BME280;25687;49.976;8.240;2022-11-25T12:13:14;100229.94;;;9.84;100.00
804;BME280;25687;49.976;8.240;2022-11-25T12:18:44;100232.38;;;10.05;100.00
804;BME280;25687;49.976;8.240;2022-11-25T12:21:35;100224.75;;;10.04;100.00
804;BME280;25687;49.976;8.240;2022-11-25T12:24:25;100223.16;;;9.83;100.00
804;BME280;25687;49.976;8.240;2022-11-25T12:26:57;100222.31;;;10.00;100.00
804;BME280;25687;49.976;8.240;2022-11-25T12:29:37;100214.22;;;10.26;100.00
804;BME280;25687;49.976;8.240;2022-11-25T12:35:12;100226.34;;;10.06;100.00
804;BME280;25687;49.976;8.240;2022-11-25T12:40:17;100233.88;;;10.09;100.00
804;BME280;25687;49.976;8.240;2022-11-25T12:42:48;100236.66;;;10.05;100.00
804;BME280;25687;49.976;8.240;2022-11-25T12:45:19;100234.97;;;9.88;100.00
804;BME280;25687;49.976;8.240;2022-11-25T12:47:46;100241.44;;;9.77;100.00
804;BME280;25687;49.976;8.240;2022-11-25T12:50:47;100248.63;;;9.88;100.00
804;BME280;25687;49.976;8.240;2022-11-25T12:53:19;100251.75;;;9.95;100.00
804;BME280;25687;49.976;8.240;2022-11-25T12:55:50;100251.34;;;9.85;100.00
804;BME280;25687;49.976;8.240;2022-11-25T13:03:59;100253.47;;;9.94;100.00
804;BME280;25687;49.976;8.240;2022-11-25T13:06:37;100265.53;;;9.92;100.00
804;BME280;25687;49.976;8.240;2022-11-25T13:09:25;100266.59;;;10.06;100.00
804;BME280;25687;49.976;8.240;2022-11-25T13:15:22;100273.63;;;10.02;100.00
804;BME280;25687;49.976;8.240;2022-11-25T13:17:58;100278.16;;;10.14;100.00
804;BME280;25687;49.976;8.240;2022-11-25T13:23:06;100278.47;;;9.73;100.00
804;BME280;25687;49.976;8.240;2022-11-25T13:25:37;100286.16;;;9.73;100.00
804;BME280;25687;49.976;8.240;2022-11-25T13:28:09;100295.03;;;9.67;100.00
804;BME280;25687;49.976;8.240;2022-11-25T13:30:51;100301.66;;;9.72;100.00
804;BME280;25687;49.976;8.240;2022-11-25T13:40:59;100306.41;;;9.62;100.00
804;BME280;25687;49.976;8.240;2022-11-25T13:43:25;100302.78;;;9.66;100.00
804;BME280;25687;49.976;8.240;2022-11-25T13:45:51;100312.47;;;9.78;100.00
804;BME280;25687;49.976;8.240;2022-11-25T13:48:24;100315.03;;;9.78;100.00
804;BME280;25687;49.976;8.240;2022-11-25T13:51:13;100323.81;;;9.74;100.00
804;BME280;25687;49.976;8.240;2022-11-25T13:53:39;100322.03;;;9.94;100.00
804;BME280;25687;49.976;8.240;2022-11-25T13:56:25;100324.44;;;9.97;100.00
804;BME280;25687;49.976;8.240;2022-11-25T14:01:40;100333.38;;;9.71;100.00
804;BME280;25687;49.976;8.240;2022-11-25T14:04:17;100331.34;;;9.77;100.00
804;BME280;25687;49.976;8.240;2022-11-25T14:06:51;100334.59;;;9.81;100.00
804;BME280;25687;49.976;8.240;2022-11-25T14:15:26;100337.38;;;9.40;100.00
804;BME280;25687;49.976;8.240;2022-11-25T14:18:08;100352.59;;;9.44;100.00
804;BME280;25687;49.976;8.240;2022-11-25T14:20:52;100335.91;;;9.34;100.00
804;BME280;25687;49.976;8.240;2022-11-25T14:23:41;100346.19;;;9.34;100.00
804;BME280;25687;49.976;8.240;2022-11-25T14:26:23;100351.81;;;9.42;100.00
804;BME280;25687;49.976;8.240;2022-11-25T14:29:00;100349.94;;;9.27;100.00
804;BME280;25687;49.976;8.240;2022-11-25T14:31:43;100353.41;;;9.26;100.00
804;BME280;25687;49.976;8.240;2022-11-25T14:34:32;100351.75;;;9.25;100.00
804;BME280;25687;49.976;8.240;2022-11-25T14:37:33;100359.59;;;9.22;100.00
804;BME280;25687;49.976;8.240;2022-11-25T14:40:17;100361.81;;;9.29;100.00
804;BME280;25687;49.976;8.240;2022-11-25T14:42:47;100358.53;;;9.45;100.00
804;BME280;25687;49.976;8.240;2022-11-25T14:47:47;100368.13;;;9.41;100.00
804;BME280;25687;49.976;8.240;2022-11-25T14:50:13;100371.53;;;9.42;100.00
804;BME280;25687;49.976;8.240;2022-11-25T14:52:39;100373.75;;;9.49;100.00
804;BME280;25687;49.976;8.240;2022-11-25T14:55:09;100376.63;;;9.23;100.00
804;BME280;25687;49.976;8.240;2022-11-25T14:57:36;100376.44;;;9.27;100.00